createdAt,value
2017-02-04T00:00:34.959Z,27.7
2017-02-04T00:01:35.390Z,27.7
2017-02-04T00:02:33.592Z,27.7
2017-02-04T00:03:33.523Z,27.7
2017-02-04T00:04:33.548Z,27.7
2017-02-04T00:05:33.614Z,27.7
2017-02-04T00:06:35.333Z,27.7
2017-02-04T00:07:35.617Z,27.7
2017-02-04T00:08:35.304Z,27.6
2017-02-04T00:09:35.373Z,27.6
2017-02-04T00:10:33.921Z,27.7
2017-02-04T00:11:33.890Z,27.7
2017-02-04T00:12:35.556Z,27.7
2017-02-04T00:13:35.902Z,27.7
2017-02-04T00:14:34.107Z,27.6
2017-02-04T00:15:35.744Z,27.6
2017-02-04T00:16:34.233Z,27.7
2017-02-04T00:17:34.251Z,27.7
2017-02-04T00:18:36.098Z,27.7
2017-02-04T00:19:34.685Z,27.7
2017-02-04T00:20:36.059Z,27.7
2017-02-04T00:21:36.189Z,27.7
2017-02-04T00:22:34.564Z,27.7
2017-02-04T00:23:36.213Z,27.7
2017-02-04T00:24:34.860Z,27.7
2017-02-04T00:25:36.728Z,27.7
2017-02-04T00:26:36.634Z,27.7
2017-02-04T00:27:36.494Z,27.7
2017-02-04T00:28:35.097Z,27.7
2017-02-04T00:29:36.568Z,27.6
2017-02-04T00:30:37.553Z,27.6
2017-02-04T00:31:37.007Z,27.6
2017-02-04T00:32:35.083Z,27.7
2017-02-04T00:33:36.738Z,27.7
2017-02-04T00:34:35.289Z,27.7
2017-02-04T00:35:35.279Z,27.6
2017-02-04T00:36:36.994Z,27.6
2017-02-04T00:37:37.846Z,27.7
2017-02-04T00:38:35.367Z,27.7
2017-02-04T00:39:37.064Z,27.7
2017-02-04T00:40:35.505Z,27.7
2017-02-04T00:41:35.703Z,27.6
2017-02-04T00:42:37.162Z,27.6
2017-02-04T00:43:37.544Z,27.7
2017-02-04T00:44:37.333Z,27.7
2017-02-04T00:45:37.397Z,27.7
2017-02-04T00:46:36.686Z,27.7
2017-02-04T00:47:35.960Z,27.7
2017-02-04T00:48:37.694Z,27.7
2017-02-04T00:49:37.883Z,27.7
2017-02-04T00:50:36.194Z,27.7
2017-02-04T00:51:36.071Z,27.7
2017-02-04T00:52:36.253Z,27.7
2017-02-04T00:53:37.835Z,27.7
2017-02-04T00:54:37.824Z,27.7
2017-02-04T00:55:38.251Z,27.7
2017-02-04T00:56:36.373Z,27.7
2017-02-04T00:57:36.407Z,27.6
2017-02-04T00:58:38.137Z,27.7
2017-02-04T00:59:38.241Z,27.6
2017-02-04T01:00:36.567Z,27.6
2017-02-04T01:01:38.618Z,27.7
2017-02-04T01:02:38.345Z,27.7
2017-02-04T01:03:36.740Z,27.7
2017-02-04T01:04:36.863Z,27.7
2017-02-04T01:05:36.832Z,27.7
2017-02-04T01:06:37.002Z,27.7
2017-02-04T01:07:38.923Z,27.7
2017-02-04T01:08:38.693Z,27.7
2017-02-04T01:09:38.635Z,27.7
2017-02-04T01:10:38.677Z,27.7
2017-02-04T01:11:38.678Z,27.6
2017-02-04T01:12:38.898Z,27.7
2017-02-04T01:13:37.674Z,27.6
2017-02-04T01:14:37.428Z,27.6
2017-02-04T01:15:37.384Z,27.7
2017-02-04T01:16:39.188Z,27.7
2017-02-04T01:17:37.505Z,27.7
2017-02-04T01:18:39.306Z,27.7
2017-02-04T01:19:39.654Z,27.7
2017-02-04T01:20:39.405Z,27.7
2017-02-04T01:21:37.748Z,27.7
2017-02-04T01:22:37.942Z,27.7
2017-02-04T01:23:37.966Z,27.7
2017-02-04T01:24:38.048Z,27.7
2017-02-04T01:25:39.865Z,27.7
2017-02-04T01:26:39.619Z,27.7
2017-02-04T01:27:38.072Z,27.7
2017-02-04T01:28:38.186Z,27.7
2017-02-04T01:29:39.724Z,27.7
2017-02-04T01:30:38.269Z,27.7
2017-02-04T01:31:38.565Z,27.6
2017-02-04T01:32:39.780Z,27.6
2017-02-04T01:33:38.372Z,27.6
2017-02-04T01:34:39.854Z,27.7
2017-02-04T01:35:38.365Z,27.7
2017-02-04T01:36:40.087Z,27.7
2017-02-04T01:37:38.743Z,27.7
2017-02-04T01:38:40.309Z,27.7
2017-02-04T01:39:38.587Z,27.6
2017-02-04T01:40:38.682Z,27.6
2017-02-04T01:41:38.827Z,27.7
2017-02-04T01:42:40.363Z,27.7
2017-02-04T01:43:40.742Z,27.7
2017-02-04T01:44:38.961Z,27.7
2017-02-04T01:45:38.999Z,27.7
2017-02-04T01:46:38.991Z,27.7
2017-02-04T01:47:40.692Z,27.6
2017-02-04T01:48:39.133Z,27.6
2017-02-04T01:49:41.038Z,27.7
2017-02-04T01:50:39.143Z,27.7
2017-02-04T01:51:39.264Z,27.7
2017-02-04T01:52:40.891Z,27.7
2017-02-04T01:53:40.900Z,27.7
2017-02-04T01:54:39.437Z,27.7
2017-02-04T01:55:41.181Z,27.7
2017-02-04T01:56:39.426Z,27.7
2017-02-04T01:57:39.348Z,27.7
2017-02-04T01:58:40.948Z,27.6
2017-02-04T01:59:39.513Z,27.6
2017-02-04T02:00:39.558Z,27.7
2017-02-04T02:01:41.417Z,27.7
2017-02-04T02:02:39.588Z,27.7
2017-02-04T02:03:41.173Z,27.7
2017-02-04T02:04:41.244Z,27.7
2017-02-04T02:05:41.234Z,27.7
2017-02-04T02:06:39.769Z,27.7
2017-02-04T02:07:40.013Z,27.7
2017-02-04T02:08:41.254Z,27.7
2017-02-04T02:09:39.828Z,27.7
2017-02-04T02:10:41.498Z,27.7
2017-02-04T02:11:39.957Z,27.7
2017-02-04T02:12:41.521Z,27.6
2017-02-04T02:13:40.388Z,27.7
2017-02-04T02:14:41.766Z,27.7
2017-02-04T02:15:41.794Z,27.7
2017-02-04T02:16:41.329Z,27.6
2017-02-04T02:17:40.274Z,27.7
2017-02-04T02:18:41.814Z,27.7
2017-02-04T02:19:42.177Z,27.7
2017-02-04T02:20:41.926Z,27.7
2017-02-04T02:21:42.064Z,27.7
2017-02-04T02:22:40.660Z,27.7
2017-02-04T02:23:40.676Z,27.7
2017-02-04T02:24:42.300Z,27.7
2017-02-04T02:25:41.671Z,27.7
2017-02-04T02:26:40.774Z,27.7
2017-02-04T02:27:40.703Z,27.7
2017-02-04T02:28:42.415Z,27.7
2017-02-04T02:29:42.337Z,27.7
2017-02-04T02:30:42.426Z,27.6
2017-02-04T02:31:41.218Z,27.7
2017-02-04T02:32:40.934Z,27.7
2017-02-04T02:33:40.981Z,27.7
2017-02-04T02:34:41.032Z,27.7
2017-02-04T02:35:45.012Z,27.7
2017-02-04T02:36:42.847Z,27.7
2017-02-04T02:37:43.176Z,27.7
2017-02-04T02:38:43.003Z,27.7
2017-02-04T02:39:41.403Z,27.7
2017-02-04T02:40:42.954Z,27.7
2017-02-04T02:41:42.977Z,27.7
2017-02-04T02:42:43.193Z,27.7
2017-02-04T02:43:41.858Z,27.6
2017-02-04T02:44:41.489Z,27.7
2017-02-04T02:45:41.647Z,27.7
2017-02-04T02:46:41.663Z,27.7
2017-02-04T02:47:42.384Z,27.7
2017-02-04T02:48:43.347Z,27.6
2017-02-04T02:49:42.722Z,27.7
2017-02-04T02:50:43.472Z,27.7
2017-02-04T02:51:43.431Z,27.7
2017-02-04T02:52:43.601Z,27.7
2017-02-04T02:53:43.619Z,27.6
2017-02-04T02:54:43.647Z,27.6
2017-02-04T02:55:42.448Z,27.6
2017-02-04T02:56:43.859Z,27.7
2017-02-04T02:57:43.748Z,27.7
2017-02-04T02:58:42.266Z,27.7
2017-02-04T02:59:42.397Z,27.7
2017-02-04T03:00:43.939Z,27.7
2017-02-04T03:01:42.659Z,27.6
2017-02-04T03:02:44.090Z,27.6
2017-02-04T03:03:44.042Z,27.7
2017-02-04T03:04:44.129Z,27.7
2017-02-04T03:05:42.531Z,27.7
2017-02-04T03:06:42.624Z,27.7
2017-02-04T03:07:42.988Z,27.7
2017-02-04T03:08:43.463Z,27.7
2017-02-04T03:09:42.949Z,27.6
2017-02-04T03:10:44.404Z,27.7
2017-02-04T03:11:43.018Z,27.6
2017-02-04T03:12:44.522Z,27.6
2017-02-04T03:13:43.421Z,27.7
2017-02-04T03:14:44.620Z,27.7
2017-02-04T03:15:43.178Z,27.7
2017-02-04T03:16:44.752Z,27.7
2017-02-04T03:17:43.158Z,27.7
2017-02-04T03:18:44.848Z,27.7
2017-02-04T03:19:45.271Z,27.7
2017-02-04T03:20:43.484Z,27.6
2017-02-04T03:21:45.007Z,27.7
2017-02-04T03:22:43.610Z,27.7
2017-02-04T03:23:43.442Z,27.7
2017-02-04T03:24:43.495Z,27.7
2017-02-04T03:25:45.524Z,27.7
2017-02-04T03:26:43.770Z,27.7
2017-02-04T03:27:43.839Z,27.6
2017-02-04T03:28:45.407Z,27.7
2017-02-04T03:29:43.862Z,27.7
2017-02-04T03:30:45.627Z,27.7
2017-02-04T03:31:45.792Z,27.7
2017-02-04T03:32:45.653Z,27.7
2017-02-04T03:33:45.632Z,27.7
2017-02-04T03:34:45.666Z,27.7
2017-02-04T03:35:45.816Z,27.7
2017-02-04T03:36:45.776Z,27.7
2017-02-04T03:37:46.148Z,27.7
2017-02-04T03:38:44.446Z,27.7
2017-02-04T03:39:46.190Z,27.6
2017-02-04T03:40:46.148Z,27.7
2017-02-04T03:41:44.646Z,27.6
2017-02-04T03:42:44.540Z,27.7
2017-02-04T03:43:44.966Z,27.7
2017-02-04T03:44:44.647Z,27.7
2017-02-04T03:45:46.310Z,27.7
2017-02-04T03:46:46.435Z,27.6
2017-02-04T03:47:44.938Z,27.7
2017-02-04T03:48:44.985Z,27.7
2017-02-04T03:49:45.231Z,27.7
2017-02-04T03:50:44.981Z,27.7
2017-02-04T03:51:45.175Z,27.7
2017-02-04T03:52:46.644Z,27.6
2017-02-04T03:53:46.724Z,27.7
2017-02-04T03:54:46.696Z,27.7
2017-02-04T03:55:45.385Z,27.7
2017-02-04T03:56:45.264Z,27.7
2017-02-04T03:57:47.064Z,27.7
2017-02-04T03:58:45.462Z,27.7
2017-02-04T03:59:47.764Z,27.7
2017-02-04T04:00:45.716Z,27.7
2017-02-04T04:01:45.872Z,27.7
2017-02-04T04:02:45.633Z,27.7
2017-02-04T04:03:45.554Z,27.7
2017-02-04T04:04:47.355Z,27.7
2017-02-04T04:05:47.429Z,27.7
2017-02-04T04:06:47.363Z,27.7
2017-02-04T04:07:47.810Z,27.7
2017-02-04T04:08:45.981Z,27.7
2017-02-04T04:09:47.633Z,27.6
2017-02-04T04:10:46.126Z,27.6
2017-02-04T04:11:47.793Z,27.6
2017-02-04T04:12:47.758Z,27.7
2017-02-04T04:13:46.526Z,27.7
2017-02-04T04:14:48.033Z,27.7
2017-02-04T04:15:46.502Z,27.7
2017-02-04T04:16:48.146Z,27.7
2017-02-04T04:17:48.281Z,27.7
2017-02-04T04:18:46.600Z,27.7
2017-02-04T04:19:48.601Z,27.6
2017-02-04T04:20:48.287Z,27.7
2017-02-04T04:21:47.575Z,27.7
2017-02-04T04:22:46.887Z,27.7
2017-02-04T04:23:46.894Z,27.7
2017-02-04T04:24:46.990Z,27.7
2017-02-04T04:25:47.261Z,27.7
2017-02-04T04:26:46.842Z,27.6
2017-02-04T04:27:48.641Z,27.7
2017-02-04T04:28:48.841Z,27.7
2017-02-04T04:29:47.309Z,27.7
2017-02-04T04:30:47.283Z,27.6
2017-02-04T04:31:49.231Z,27.6
2017-02-04T04:32:47.344Z,27.7
2017-02-04T04:33:47.554Z,27.7
2017-02-04T04:34:47.604Z,27.7
2017-02-04T04:35:47.427Z,27.7
2017-02-04T04:36:47.452Z,27.7
2017-02-04T04:37:49.447Z,27.7
2017-02-04T04:38:47.528Z,27.7
2017-02-04T04:39:49.309Z,27.7
2017-02-04T04:40:49.437Z,27.7
2017-02-04T04:41:47.858Z,27.7
2017-02-04T04:42:49.514Z,27.7
2017-02-04T04:43:49.913Z,27.6
2017-02-04T04:44:47.961Z,27.6
2017-02-04T04:45:48.011Z,27.7
2017-02-04T04:46:50.179Z,27.7
2017-02-04T04:47:48.199Z,27.7
2017-02-04T04:48:48.218Z,27.7
2017-02-04T04:49:50.044Z,27.6
2017-02-04T04:50:49.887Z,27.6
2017-02-04T04:51:48.311Z,27.6
2017-02-04T04:52:48.314Z,27.6
2017-02-04T04:53:48.339Z,27.7
2017-02-04T04:54:48.230Z,27.7
2017-02-04T04:55:50.093Z,27.7
2017-02-04T04:56:48.368Z,27.7
2017-02-04T04:57:50.003Z,27.7
2017-02-04T04:58:50.129Z,27.7
2017-02-04T04:59:50.077Z,27.6
2017-02-04T05:00:48.495Z,27.6
2017-02-04T05:01:48.966Z,27.6
2017-02-04T05:02:48.722Z,27.6
2017-02-04T05:03:48.668Z,27.7
2017-02-04T05:04:48.754Z,27.6
2017-02-04T05:05:50.448Z,27.7
2017-02-04T05:06:50.432Z,27.6
2017-02-04T05:07:50.719Z,27.7
2017-02-04T05:08:50.570Z,27.6
2017-02-04T05:09:49.133Z,27.6
2017-02-04T05:10:50.748Z,27.6
2017-02-04T05:11:50.665Z,27.6
2017-02-04T05:12:50.890Z,27.7
2017-02-04T05:13:51.115Z,27.6
2017-02-04T05:14:49.439Z,27.7
2017-02-04T05:15:50.978Z,27.6
2017-02-04T05:16:49.443Z,27.6
2017-02-04T05:17:49.453Z,27.6
2017-02-04T05:18:51.213Z,27.7
2017-02-04T05:19:49.875Z,27.7
2017-02-04T05:20:51.327Z,27.7
2017-02-04T05:21:51.400Z,27.7
2017-02-04T05:22:51.379Z,27.7
2017-02-04T05:23:51.379Z,27.7
2017-02-04T05:24:49.966Z,27.7
2017-02-04T05:25:51.914Z,27.7
2017-02-04T05:26:51.550Z,27.7
2017-02-04T05:27:51.546Z,27.7
2017-02-04T05:28:50.102Z,27.7
2017-02-04T05:29:50.201Z,27.7
2017-02-04T05:30:50.164Z,27.6
2017-02-04T05:31:52.187Z,27.7
2017-02-04T05:32:51.891Z,27.7
2017-02-04T05:33:50.247Z,27.7
2017-02-04T05:34:50.430Z,27.7
2017-02-04T05:35:50.447Z,27.6
2017-02-04T05:36:50.370Z,27.7
2017-02-04T05:37:50.678Z,27.7
2017-02-04T05:38:52.080Z,27.7
2017-02-04T05:39:50.603Z,27.7
2017-02-04T05:40:50.552Z,27.7
2017-02-04T05:41:52.268Z,27.7
2017-02-04T05:42:52.354Z,27.7
2017-02-04T05:43:51.020Z,27.7
2017-02-04T05:44:50.911Z,27.7
2017-02-04T05:45:52.476Z,27.7
2017-02-04T05:46:50.973Z,27.7
2017-02-04T05:47:52.691Z,27.6
2017-02-04T05:48:51.013Z,27.6
2017-02-04T05:49:54.056Z,27.7
2017-02-04T05:50:51.022Z,27.6
2017-02-04T05:51:51.081Z,27.6
2017-02-04T05:52:52.803Z,27.6
2017-02-04T05:53:51.153Z,27.7
2017-02-04T05:54:51.326Z,27.6
2017-02-04T05:55:53.248Z,27.7
2017-02-04T05:56:51.319Z,27.6
2017-02-04T05:57:51.460Z,27.6
2017-02-04T05:58:51.522Z,27.7
2017-02-04T05:59:53.196Z,27.6
2017-02-04T06:00:51.474Z,27.6
2017-02-04T06:01:53.430Z,27.6
2017-02-04T06:02:53.358Z,27.6
2017-02-04T06:03:51.805Z,27.6
2017-02-04T06:04:51.906Z,27.6
2017-02-04T06:05:53.343Z,27.6
2017-02-04T06:06:51.770Z,27.6
2017-02-04T06:07:53.679Z,27.6
2017-02-04T06:08:51.894Z,27.6
2017-02-04T06:09:53.522Z,27.6
2017-02-04T06:10:53.701Z,27.6
2017-02-04T06:11:52.097Z,27.6
2017-02-04T06:12:52.044Z,27.6
2017-02-04T06:13:52.320Z,27.6
2017-02-04T06:14:52.219Z,27.6
2017-02-04T06:15:52.203Z,27.6
2017-02-04T06:16:53.814Z,27.6
2017-02-04T06:17:52.331Z,27.6
2017-02-04T06:18:53.882Z,27.6
2017-02-04T06:19:54.202Z,27.6
2017-02-04T06:20:52.413Z,27.6
2017-02-04T06:21:54.102Z,27.6
2017-02-04T06:22:52.555Z,27.6
2017-02-04T06:23:52.654Z,27.6
2017-02-04T06:24:54.098Z,27.6
2017-02-04T06:25:52.819Z,27.6
2017-02-04T06:26:52.607Z,27.6
2017-02-04T06:27:54.216Z,27.6
2017-02-04T06:28:52.761Z,27.6
2017-02-04T06:29:52.818Z,27.6
2017-02-04T06:30:54.442Z,27.6
2017-02-04T06:31:54.693Z,27.6
2017-02-04T06:32:52.920Z,27.6
2017-02-04T06:33:53.022Z,27.6
2017-02-04T06:34:53.100Z,27.6
2017-02-04T06:35:53.175Z,27.6
2017-02-04T06:36:54.729Z,27.6
2017-02-04T06:37:53.431Z,27.6
2017-02-04T06:38:53.282Z,27.6
2017-02-04T06:39:54.917Z,27.6
2017-02-04T06:40:53.374Z,27.6
2017-02-04T06:41:53.295Z,27.6
2017-02-04T06:42:54.969Z,27.6
2017-02-04T06:43:55.425Z,27.6
2017-02-04T06:44:55.230Z,27.6
2017-02-04T06:45:55.814Z,27.6
2017-02-04T06:46:53.730Z,27.6
2017-02-04T06:47:53.842Z,27.6
2017-02-04T06:48:55.544Z,27.6
2017-02-04T06:49:54.947Z,27.6
2017-02-04T06:50:55.698Z,27.6
2017-02-04T06:51:54.166Z,27.6
2017-02-04T06:52:55.682Z,27.6
2017-02-04T06:53:55.866Z,27.6
2017-02-04T06:54:54.294Z,27.6
2017-02-04T06:55:54.496Z,27.6
2017-02-04T06:56:56.041Z,27.6
2017-02-04T06:57:54.411Z,27.6
2017-02-04T06:58:56.126Z,27.6
2017-02-04T06:59:54.607Z,27.6
2017-02-04T07:00:54.531Z,27.6
2017-02-04T07:01:56.458Z,27.6
2017-02-04T07:02:54.822Z,27.6
2017-02-04T07:03:56.440Z,27.6
2017-02-04T07:04:54.803Z,27.6
2017-02-04T07:05:54.927Z,27.6
2017-02-04T07:06:55.019Z,27.6
2017-02-04T07:07:55.218Z,27.6
2017-02-04T07:08:56.706Z,27.6
2017-02-04T07:09:56.760Z,27.7
2017-02-04T07:10:55.095Z,27.6
2017-02-04T07:11:56.787Z,27.7
2017-02-04T07:12:55.341Z,27.7
2017-02-04T07:13:55.625Z,27.7
2017-02-04T07:14:55.346Z,27.7
2017-02-04T07:15:57.094Z,27.7
2017-02-04T07:16:55.604Z,27.7
2017-02-04T07:17:55.509Z,27.7
2017-02-04T07:18:55.589Z,27.7
2017-02-04T07:19:56.107Z,27.7
2017-02-04T07:20:55.843Z,27.7
2017-02-04T07:21:55.766Z,27.7
2017-02-04T07:22:57.448Z,27.7
2017-02-04T07:23:55.946Z,27.8
2017-02-04T07:24:57.612Z,27.8
2017-02-04T07:25:56.463Z,27.8
2017-02-04T07:26:56.304Z,27.8
2017-02-04T07:27:56.312Z,27.8
2017-02-04T07:28:57.955Z,27.8
2017-02-04T07:29:56.469Z,27.9
2017-02-04T07:30:56.376Z,27.9
2017-02-04T07:31:58.363Z,27.9
2017-02-04T07:32:56.522Z,27.9
2017-02-04T07:33:58.217Z,27.9
2017-02-04T07:34:56.741Z,27.9
2017-02-04T07:35:56.681Z,27.9
2017-02-04T07:36:58.318Z,27.9
2017-02-04T07:37:57.251Z,27.9
2017-02-04T07:38:56.805Z,28
2017-02-04T07:39:57.001Z,28
2017-02-04T07:40:58.509Z,28
2017-02-04T07:41:57.040Z,28.1
2017-02-04T07:42:57.082Z,28.1
2017-02-04T07:43:57.464Z,28.1
2017-02-04T07:44:58.776Z,28.1
2017-02-04T07:45:58.816Z,28.1
2017-02-04T07:46:58.833Z,28.1
2017-02-04T07:47:58.891Z,28.1
2017-02-04T07:48:58.844Z,28.2
2017-02-04T07:49:59.768Z,28.2
2017-02-04T07:50:59.083Z,28.2
2017-02-04T07:51:57.527Z,28.2
2017-02-04T07:52:57.440Z,28.3
2017-02-04T07:53:57.561Z,28.3
2017-02-04T07:54:57.484Z,28.3
2017-02-04T07:55:57.971Z,28.4
2017-02-04T07:56:57.797Z,28.4
2017-02-04T07:57:57.703Z,28.5
2017-02-04T07:58:57.705Z,28.5
2017-02-04T07:59:57.873Z,28.5
2017-02-04T08:00:59.548Z,28.6
2017-02-04T08:01:58.147Z,28.6
2017-02-04T08:02:57.979Z,28.6
2017-02-04T08:03:59.751Z,28.6
2017-02-04T08:04:58.119Z,28.7
2017-02-04T08:06:00.223Z,28.7
2017-02-04T08:06:58.228Z,28.7
2017-02-04T08:07:58.573Z,28.8
2017-02-04T08:08:58.322Z,28.9
2017-02-04T08:09:59.935Z,28.8
2017-02-04T08:10:59.839Z,28.9
2017-02-04T08:11:59.974Z,28.9
2017-02-04T08:12:59.948Z,28.9
2017-02-04T08:14:00.262Z,28.9
2017-02-04T08:15:00.040Z,28.9
2017-02-04T08:15:58.461Z,28.9
2017-02-04T08:17:00.128Z,28.9
2017-02-04T08:18:00.215Z,28.9
2017-02-04T08:18:58.722Z,28.9
2017-02-04T08:20:00.684Z,28.9
2017-02-04T08:21:00.413Z,28.8
2017-02-04T08:21:58.966Z,28.8
2017-02-04T08:23:00.527Z,28.8
2017-02-04T08:23:58.983Z,28.8
2017-02-04T08:25:00.758Z,28.8
2017-02-04T08:25:59.419Z,28.8
2017-02-04T08:27:00.615Z,28.8
2017-02-04T08:27:59.111Z,28.9
2017-02-04T08:29:00.890Z,28.9
2017-02-04T08:29:59.299Z,28.9
2017-02-04T08:31:00.884Z,28.9
2017-02-04T08:32:01.299Z,28.9
2017-02-04T08:33:00.986Z,28.9
2017-02-04T08:34:01.123Z,28.9
2017-02-04T08:34:59.514Z,28.9
2017-02-04T08:35:59.628Z,28.9
2017-02-04T08:37:01.260Z,28.9
2017-02-04T08:37:59.885Z,28.9
2017-02-04T08:39:01.304Z,28.9
2017-02-04T08:39:59.734Z,28.9
2017-02-04T08:40:59.798Z,29
2017-02-04T08:42:01.571Z,29
2017-02-04T08:43:01.601Z,29
2017-02-04T08:44:01.967Z,28.9
2017-02-04T08:45:01.711Z,28.9
2017-02-04T08:46:02.641Z,28.9
2017-02-04T08:47:00.257Z,28.9
2017-02-04T08:48:00.143Z,28.9
2017-02-04T08:49:00.175Z,28.9
2017-02-04T08:50:02.183Z,28.9
2017-02-04T08:51:00.355Z,28.9
2017-02-04T08:52:01.990Z,28.9
2017-02-04T08:53:00.470Z,28.9
2017-02-04T08:54:00.434Z,28.9
2017-02-04T08:55:02.164Z,28.9
2017-02-04T08:56:02.347Z,28.9
2017-02-04T08:57:00.597Z,28.9
2017-02-04T08:58:00.613Z,28.9
2017-02-04T08:59:02.395Z,28.9
2017-02-04T09:00:02.452Z,28.9
2017-02-04T09:01:00.881Z,28.9
2017-02-04T09:02:01.287Z,28.9
2017-02-04T09:03:01.008Z,28.9
2017-02-04T09:04:02.645Z,28.9
2017-02-04T09:05:01.108Z,28.9
2017-02-04T09:06:01.182Z,28.9
2017-02-04T09:07:01.099Z,28.9
2017-02-04T09:08:01.578Z,28.9
2017-02-04T09:09:02.808Z,28.9
2017-02-04T09:10:01.353Z,28.9
2017-02-04T09:11:03.021Z,28.9
2017-02-04T09:12:03.073Z,28.9
2017-02-04T09:13:02.980Z,28.9
2017-02-04T09:14:03.144Z,28.9
2017-02-04T09:15:03.177Z,28.9
2017-02-04T09:16:01.647Z,28.9
2017-02-04T09:17:03.136Z,28.9
2017-02-04T09:18:03.286Z,28.9
2017-02-04T09:19:03.286Z,28.9
2017-02-04T09:20:03.300Z,28.9
2017-02-04T09:21:03.480Z,28.8
2017-02-04T09:22:01.859Z,28.9
2017-02-04T09:23:02.063Z,28.9
2017-02-04T09:24:02.114Z,28.8
2017-02-04T09:25:02.012Z,28.9
2017-02-04T09:26:04.031Z,28.9
2017-02-04T09:27:03.649Z,28.9
2017-02-04T09:28:03.654Z,28.9
2017-02-04T09:29:03.791Z,28.9
2017-02-04T09:30:02.379Z,28.9
2017-02-04T09:31:02.392Z,28.9
2017-02-04T09:32:02.544Z,28.9
2017-02-04T09:33:02.362Z,29
2017-02-04T09:42:51.015Z,28.8
2017-02-04T09:43:50.735Z,28.7
2017-02-04T09:44:52.499Z,28.8
2017-02-04T09:45:50.897Z,28.8
2017-02-04T09:46:52.637Z,28.9
2017-02-04T09:47:52.518Z,28.9
2017-02-04T09:48:51.231Z,28.9
2017-02-04T09:49:51.116Z,28.9
2017-02-04T09:50:51.193Z,28.9
2017-02-04T09:51:51.142Z,29
2017-02-04T09:52:52.668Z,28.9
2017-02-04T09:53:52.695Z,29
2017-02-04T09:54:53.020Z,29
2017-02-04T09:55:51.225Z,29
2017-02-04T09:56:52.764Z,29
2017-02-04T09:57:52.938Z,29
2017-02-04T09:58:52.922Z,29
2017-02-04T09:59:53.024Z,29
2017-02-04T10:00:53.441Z,29
2017-02-04T10:01:51.572Z,29
2017-02-04T10:02:51.488Z,29
2017-02-04T10:03:53.177Z,29
2017-02-04T10:04:51.770Z,29
2017-02-04T10:05:53.407Z,29
2017-02-04T10:06:53.615Z,29
2017-02-04T10:07:53.363Z,29
2017-02-04T10:08:51.835Z,29
2017-02-04T10:09:53.572Z,29.1
2017-02-04T10:10:53.673Z,29
2017-02-04T10:11:52.097Z,29.1
2017-02-04T10:12:52.287Z,29.1
2017-02-04T10:13:52.190Z,29.1
2017-02-04T10:14:53.815Z,29.1
2017-02-04T10:15:53.765Z,29.1
2017-02-04T10:16:53.803Z,29.1
2017-02-04T10:17:52.275Z,29.1
2017-02-04T10:18:53.946Z,29.1
2017-02-04T10:19:52.489Z,29.1
2017-02-04T10:20:54.002Z,29.1
2017-02-04T10:21:52.475Z,29.1
2017-02-04T10:22:54.228Z,29.1
2017-02-04T10:23:54.236Z,29.1
2017-02-04T10:24:54.294Z,29.1
2017-02-04T10:25:58.167Z,29.1
2017-02-04T10:26:54.521Z,29.1
2017-02-04T10:27:52.892Z,29.1
2017-02-04T10:28:53.122Z,29.1
2017-02-04T10:29:54.618Z,29.1
2017-02-04T10:30:54.700Z,29
2017-02-04T10:31:53.161Z,29
2017-02-04T10:32:54.040Z,29.1
2017-02-04T10:33:53.393Z,29
2017-02-04T10:34:55.045Z,29.1
2017-02-04T10:35:53.515Z,29
2017-02-04T10:36:53.568Z,29.1
2017-02-04T10:37:53.543Z,29
2017-02-04T10:38:53.632Z,29
2017-02-04T10:39:55.142Z,29
2017-02-04T10:40:53.565Z,29
2017-02-04T10:41:55.161Z,29
2017-02-04T10:42:56.036Z,29
2017-02-04T10:43:53.868Z,29
2017-02-04T10:44:55.407Z,29
2017-02-04T10:52:59.578Z,28.8
2017-02-04T10:53:59.256Z,28.8
2017-02-04T10:55:00.939Z,28.8
2017-02-04T10:56:00.905Z,28.8
2017-02-04T10:56:59.319Z,28.8
2017-02-04T10:58:00.974Z,28.8
2017-02-04T10:58:59.677Z,28.9
2017-02-04T11:00:01.033Z,28.9
2017-02-04T11:00:59.585Z,28.9
2017-02-04T11:01:59.660Z,28.9
2017-02-04T11:03:01.233Z,28.9
2017-02-04T11:03:59.703Z,28.9
2017-02-04T11:05:00.079Z,28.9
2017-02-04T11:05:59.864Z,28.9
2017-02-04T11:06:59.713Z,28.9
2017-02-04T11:08:01.451Z,28.9
2017-02-04T11:08:59.943Z,28.9
2017-02-04T11:10:01.424Z,28.9
2017-02-04T11:11:01.745Z,28.9
2017-02-04T11:12:01.472Z,28.9
2017-02-04T11:12:59.872Z,28.9
2017-02-04T11:14:00.011Z,28.9
2017-02-04T11:15:00.158Z,28.9
2017-02-04T11:16:01.821Z,28.9
2017-02-04T11:17:00.493Z,28.9
2017-02-04T11:18:00.424Z,28.9
2017-02-04T11:19:02.088Z,28.9
2017-02-04T11:20:00.318Z,28.9
2017-02-04T11:21:02.162Z,28.9
2017-02-04T11:22:00.425Z,28.9
2017-02-04T11:23:02.475Z,28.9
2017-02-04T11:24:00.646Z,28.9
2017-02-04T11:25:01.418Z,28.9
2017-02-04T11:26:00.791Z,28.9
2017-02-04T11:27:00.869Z,28.9
2017-02-04T11:28:00.967Z,28.9
2017-02-04T11:29:02.896Z,28.9
2017-02-04T11:30:02.712Z,28.8
2017-02-04T11:31:02.560Z,28.8
2017-02-04T11:32:02.651Z,28.8
2017-02-04T11:33:02.603Z,28.9
2017-02-04T11:42:50.502Z,28.7
2017-02-04T11:43:50.365Z,28.6
2017-02-04T11:44:50.371Z,28.6
2017-02-04T11:45:52.437Z,28.7
2017-02-04T11:46:51.912Z,28.7
2017-02-04T11:47:50.441Z,28.7
2017-02-04T11:48:52.355Z,28.7
2017-02-04T11:49:52.132Z,28.7
2017-02-04T11:50:52.056Z,28.7
2017-02-04T11:51:50.520Z,28.8
2017-02-04T11:52:50.627Z,28.8
2017-02-04T11:53:52.216Z,28.8
2017-02-04T11:54:52.475Z,28.8
2017-02-04T11:55:50.700Z,28.8
2017-02-04T11:56:52.335Z,28.8
2017-02-04T11:57:52.248Z,28.8
2017-02-04T11:58:50.823Z,28.8
2017-02-04T11:59:50.949Z,28.8
2017-02-04T12:00:51.208Z,28.8
2017-02-04T12:01:52.670Z,28.8
2017-02-04T12:02:51.116Z,28.8
2017-02-04T12:03:51.161Z,28.8
2017-02-04T12:04:51.083Z,28.8
2017-02-04T12:05:51.229Z,28.8
2017-02-04T12:06:51.590Z,28.8
2017-02-04T12:07:51.261Z,28.8
2017-02-04T12:08:51.364Z,28.8
2017-02-04T12:09:51.416Z,28.8
2017-02-04T12:10:53.128Z,28.8
2017-02-04T12:11:53.092Z,28.9
2017-02-04T12:12:51.959Z,28.9
2017-02-04T12:13:51.635Z,28.9
2017-02-04T12:14:53.370Z,28.8
2017-02-04T12:15:53.379Z,28.9
2017-02-04T12:16:53.404Z,28.9
2017-02-04T12:17:54.117Z,28.9
2017-02-04T12:18:52.973Z,28.9
2017-02-04T12:19:53.582Z,28.9
2017-02-04T12:20:53.722Z,28.9
2017-02-04T12:21:54.326Z,28.9
2017-02-04T12:22:52.134Z,29
2017-02-04T12:23:53.912Z,28.9
2017-02-04T12:24:52.467Z,28.9
2017-02-04T12:25:52.432Z,28.9
2017-02-04T12:26:54.062Z,29
2017-02-04T12:27:54.049Z,29
2017-02-04T12:28:54.226Z,29
2017-02-04T12:29:52.631Z,29
2017-02-04T12:30:52.889Z,29
2017-02-04T12:31:52.786Z,29
2017-02-04T12:32:54.284Z,29
2017-02-04T12:33:52.845Z,29
2017-02-04T12:34:52.806Z,29
2017-02-04T12:35:52.878Z,29
2017-02-04T12:36:54.784Z,29
2017-02-04T12:37:54.556Z,29
2017-02-04T12:38:54.698Z,29
2017-02-04T12:39:53.036Z,29
2017-02-04T12:40:54.773Z,29
2017-02-04T12:41:53.265Z,29
2017-02-04T12:42:55.261Z,29
2017-02-04T12:43:53.301Z,29
2017-02-04T12:44:55.080Z,29
2017-02-04T12:45:55.129Z,29
2017-02-04T12:46:55.045Z,29
2017-02-04T12:47:53.612Z,29
2017-02-04T12:48:55.380Z,28.9
2017-02-04T12:49:55.290Z,28.9
2017-02-04T12:50:53.600Z,28.9
2017-02-04T12:51:53.805Z,28.9
2017-02-04T12:52:53.706Z,28.9
2017-02-04T12:53:55.447Z,28.9
2017-02-04T12:54:54.173Z,28.9
2017-02-04T12:55:55.436Z,28.9
2017-02-04T12:56:55.501Z,28.9
2017-02-04T12:57:56.346Z,28.8
2017-02-04T12:58:55.552Z,28.9
2017-02-04T12:59:54.153Z,28.9
2017-02-04T13:00:55.948Z,28.9
2017-02-04T13:01:55.812Z,28.9
2017-02-04T13:02:54.259Z,28.9
2017-02-04T13:03:54.199Z,28.8
2017-02-04T13:04:55.896Z,28.9
2017-02-04T13:05:54.361Z,28.8
2017-02-04T13:06:54.588Z,28.9
2017-02-04T13:07:54.424Z,28.8
2017-02-04T13:08:54.333Z,28.8
2017-02-04T13:09:56.017Z,28.8
2017-02-04T13:10:54.519Z,28.8
2017-02-04T13:11:55.799Z,28.8
2017-02-04T13:12:56.473Z,28.8
2017-02-04T13:13:54.504Z,28.8
2017-02-04T13:14:56.139Z,28.8
2017-02-04T13:15:55.470Z,28.7
2017-02-04T13:16:56.374Z,28.8
2017-02-04T13:17:54.756Z,28.7
2017-02-04T13:18:56.717Z,28.7
2017-02-04T13:19:54.807Z,28.7
2017-02-04T13:20:56.485Z,28.7
2017-02-04T13:21:56.455Z,28.7
2017-02-04T13:22:56.443Z,28.7
2017-02-04T13:23:56.497Z,28.7
2017-02-04T13:24:55.406Z,28.7
2017-02-04T13:25:56.733Z,28.7
2017-02-04T13:26:55.102Z,28.7
2017-02-04T13:27:56.866Z,28.7
2017-02-04T13:28:56.854Z,28.7
2017-02-04T13:29:56.854Z,28.7
2017-02-04T13:30:55.724Z,28.7
2017-02-04T13:31:57.023Z,28.7
2017-02-04T13:32:55.421Z,28.7
2017-02-04T13:33:55.605Z,28.7
2017-02-04T13:34:57.207Z,28.7
2017-02-04T13:35:57.246Z,28.7
2017-02-04T13:36:57.682Z,28.7
2017-02-04T13:37:55.860Z,28.6
2017-02-04T13:38:55.718Z,28.7
2017-02-04T13:39:55.803Z,28.6
2017-02-04T13:40:55.901Z,28.7
2017-02-04T13:41:57.659Z,28.7
2017-02-04T13:42:57.892Z,28.6
2017-02-04T13:43:56.199Z,28.6
2017-02-04T13:44:57.705Z,28.6
2017-02-04T13:45:57.827Z,28.6
2017-02-04T13:46:56.385Z,28.6
2017-02-04T13:47:57.977Z,28.6